createdAt,value
2023-02-16T00:01:48.046Z,99675.22
2023-02-16T00:04:22.969Z,99679.78
2023-02-16T00:06:49.897Z,99675.16
2023-02-16T00:09:17.238Z,99673.38
2023-02-16T00:12:02.577Z,99677.34
2023-02-16T00:14:29.798Z,99672.75
2023-02-16T00:16:57.482Z,99675.75
2023-02-16T00:19:27.589Z,99674.19
2023-02-16T00:21:56.128Z,99670.97
2023-02-16T00:24:23.582Z,99665.19
2023-02-16T00:26:50.677Z,99664.16
2023-02-16T00:29:23.376Z,99672.25
2023-02-16T00:31:50.543Z,99664.44
2023-02-16T00:34:31.249Z,99663.38
2023-02-16T00:36:58.873Z,99659.09
2023-02-16T00:39:26.229Z,99656.19
2023-02-16T00:41:58.011Z,99658.38
2023-02-16T00:44:34.138Z,99654.34
2023-02-16T00:47:25.807Z,99654.56
2023-02-16T00:49:53.718Z,99656.06
2023-02-16T00:52:23.660Z,99660.13
2023-02-16T00:54:50.718Z,99654.19
2023-02-16T00:57:17.959Z,99652.69
2023-02-16T00:59:45.466Z,99642.13
2023-02-16T01:02:12.187Z,99637.53
2023-02-16T01:04:39.524Z,99646.56
2023-02-16T01:07:30.526Z,99645.50
2023-02-16T01:10:15.990Z,99636.47
2023-02-16T01:12:42.799Z,99642.56
2023-02-16T01:15:12.725Z,99639.47
2023-02-16T01:17:39.469Z,99632.19
2023-02-16T01:20:19.356Z,99643.34
2023-02-16T01:22:46.147Z,99633.06
2023-02-16T01:25:14.292Z,99634.75
2023-02-16T01:27:41.200Z,99638.09
2023-02-16T01:30:21.683Z,99633.00
2023-02-16T01:32:51.892Z,99639.03
2023-02-16T01:35:23.637Z,99638.22
2023-02-16T01:37:50.452Z,99629.34
2023-02-16T01:40:35.278Z,99634.75
2023-02-16T01:43:21.892Z,99631.19
2023-02-16T01:45:54.645Z,99637.66
2023-02-16T01:48:25.129Z,99638.09
2023-02-16T01:50:57.704Z,99630.88
2023-02-16T01:53:48.937Z,99625.53
2023-02-16T01:56:25.419Z,99618.34
2023-02-16T01:58:54.662Z,99622.19
2023-02-16T02:01:42.017Z,99620.56
2023-02-16T02:04:48.818Z,99618.97
2023-02-16T02:07:38.634Z,99617.16
2023-02-16T02:10:20.220Z,99611.06
2023-02-16T02:13:12.331Z,99621.81
2023-02-16T02:15:39.085Z,99617.16
2023-02-16T02:18:06.213Z,99609.94
2023-02-16T02:21:24.058Z,99607.66
2023-02-16T02:24:04.864Z,99608.63
2023-02-16T02:26:55.897Z,99616.91
2023-02-16T02:29:46.741Z,99613.28
2023-02-16T02:32:31.862Z,99611.63
2023-02-16T02:35:17.528Z,99608.59
2023-02-16T02:37:47.226Z,99615.09
2023-02-16T02:40:40.931Z,99615.19
2023-02-16T02:43:13.935Z,99616.69
2023-02-16T02:45:54.448Z,99613.91
2023-02-16T02:48:21.224Z,99616.06
2023-02-16T02:51:08.797Z,99616.22
2023-02-16T02:53:38.192Z,99611.44
2023-02-16T02:56:23.887Z,99605.69
2023-02-16T02:59:11.174Z,99609.19
2023-02-16T03:01:38.481Z,99614.22
2023-02-16T03:04:05.563Z,99616.38
2023-02-16T03:06:40.875Z,99618.69
2023-02-16T03:09:11.524Z,99613.34
2023-02-16T03:11:57.068Z,99611.03
2023-02-16T03:14:30.901Z,99613.72
2023-02-16T03:17:18.330Z,99614.88
2023-02-16T03:20:05.384Z,99618.47
2023-02-16T03:22:51.055Z,99609.66
2023-02-16T03:25:36.449Z,99605.88
2023-02-16T03:28:22.779Z,99602.69
2023-02-16T03:30:49.681Z,99600.72
2023-02-16T03:33:16.785Z,99598.63
2023-02-16T03:35:43.697Z,99593.19
2023-02-16T03:38:10.738Z,99604.16
2023-02-16T03:40:39.570Z,99600.47
2023-02-16T03:43:08.114Z,99598.41
2023-02-16T03:45:37.117Z,99594.88
2023-02-16T03:48:04.260Z,99588.91
2023-02-16T03:50:31.273Z,99592.06
2023-02-16T03:53:07.598Z,99593.25
2023-02-16T03:55:42.343Z,99595.56
2023-02-16T03:58:10.963Z,99596.16
2023-02-16T04:00:37.805Z,99595.31
2023-02-16T04:03:05.693Z,99589.06
2023-02-16T04:05:32.624Z,99590.97
2023-02-16T04:07:59.687Z,99594.72
2023-02-16T04:10:26.549Z,99589.81
2023-02-16T04:12:53.701Z,99595.50
2023-02-16T04:15:22.267Z,99591.56
2023-02-16T04:17:49.596Z,99581.97
2023-02-16T04:20:18.831Z,99587.38
2023-02-16T04:22:46.038Z,99592.59
2023-02-16T04:25:12.883Z,99588.06
2023-02-16T04:27:40.024Z,99566.38
2023-02-16T04:30:07.491Z,99571.56
2023-02-16T04:32:34.569Z,99566.72
2023-02-16T04:35:01.326Z,99566.25
2023-02-16T04:37:28.373Z,99568.03
2023-02-16T04:39:55.230Z,99565.34
2023-02-16T04:42:22.352Z,99566.47
2023-02-16T04:44:49.090Z,99558.22
2023-02-16T04:47:16.173Z,99556.03
2023-02-16T04:49:42.989Z,99559.09
2023-02-16T04:52:11.961Z,99554.00
2023-02-16T04:54:38.788Z,99554.88
2023-02-16T04:57:05.830Z,99562.69
2023-02-16T04:59:32.619Z,99554.69
2023-02-16T05:01:59.781Z,99553.88
2023-02-16T05:04:26.683Z,99556.44
2023-02-16T05:06:53.830Z,99549.28
2023-02-16T05:09:20.773Z,99550.41
2023-02-16T05:12:06.529Z,99563.63
2023-02-16T05:14:46.993Z,99551.28
2023-02-16T05:17:16.575Z,99551.28
2023-02-16T05:19:44.618Z,99552.22
2023-02-16T05:22:11.895Z,99547.78
2023-02-16T05:24:39.152Z,99551.50
2023-02-16T05:27:07.722Z,99554.16
2023-02-16T05:29:34.707Z,99564.78
2023-02-16T05:32:04.377Z,99561.13
2023-02-16T05:34:31.586Z,99555.84
2023-02-16T05:36:58.631Z,99567.69
2023-02-16T05:39:25.899Z,99565.72
2023-02-16T05:41:52.974Z,99573.69
2023-02-16T05:44:19.769Z,99572.97
2023-02-16T05:46:46.868Z,99571.97
2023-02-16T05:49:14.408Z,99584.34
2023-02-16T05:51:41.738Z,99581.41
2023-02-16T05:54:10.680Z,99574.00
2023-02-16T05:56:37.785Z,99570.38
2023-02-16T05:59:04.521Z,99574.81
2023-02-16T06:01:31.578Z,99574.75
2023-02-16T06:03:58.397Z,99581.78
2023-02-16T06:06:25.470Z,99588.19
2023-02-16T06:08:52.514Z,99600.84
2023-02-16T06:11:37.881Z,99593.53
2023-02-16T06:14:12.735Z,99595.44
2023-02-16T06:16:41.051Z,99593.41
2023-02-16T06:19:07.849Z,99592.38
2023-02-16T06:21:35.390Z,99587.81
2023-02-16T06:24:02.233Z,99594.81
2023-02-16T06:26:29.343Z,99592.81
2023-02-16T06:28:56.165Z,99584.81
2023-02-16T06:31:23.820Z,99599.50
2023-02-16T06:33:51.015Z,99597.22
2023-02-16T06:36:18.250Z,99594.22
2023-02-16T06:38:45.515Z,99579.91
2023-02-16T06:41:12.723Z,99596.56
2023-02-16T06:43:39.529Z,99603.34
2023-02-16T06:46:06.740Z,99601.53
2023-02-16T06:48:33.649Z,99597.97
2023-02-16T06:51:00.710Z,99608.03
2023-02-16T06:53:27.531Z,99596.34
2023-02-16T06:55:54.666Z,99592.72
2023-02-16T06:58:21.536Z,99595.22
2023-02-16T07:00:48.684Z,99594.44
2023-02-16T07:03:15.561Z,99594.44
2023-02-16T07:05:44.180Z,99598.06
2023-02-16T07:08:11.135Z,99602.31
2023-02-16T07:10:49.288Z,99593.38
2023-02-16T07:13:17.040Z,99601.38
2023-02-16T07:15:44.140Z,99596.09
2023-02-16T07:18:10.875Z,99593.31
2023-02-16T07:20:38.039Z,99583.69
2023-02-16T07:23:04.952Z,99592.94
2023-02-16T07:25:32.094Z,99583.41
2023-02-16T07:27:58.909Z,99584.16
2023-02-16T07:30:25.990Z,99591.19
2023-02-16T07:32:52.792Z,99586.72
2023-02-16T07:35:20.151Z,99598.06
2023-02-16T07:37:46.991Z,99591.84
2023-02-16T07:40:14.022Z,99600.56
2023-02-16T07:42:40.799Z,99598.75
2023-02-16T07:45:08.294Z,99592.53
2023-02-16T07:47:35.092Z,99590.63
2023-02-16T07:50:02.207Z,99595.78
2023-02-16T07:52:31.238Z,99593.88
2023-02-16T07:55:01.182Z,99584.94
2023-02-16T07:57:28.200Z,99591.94
2023-02-16T07:59:55.650Z,99589.22
2023-02-16T08:02:22.742Z,99594.50
2023-02-16T08:04:50.017Z,99587.19
2023-02-16T08:07:17.376Z,99579.81
2023-02-16T08:09:44.622Z,99577.81
2023-02-16T08:12:12.465Z,99587.59
2023-02-16T08:14:39.901Z,99586.41
2023-02-16T08:17:07.676Z,99585.59
2023-02-16T08:19:34.987Z,99584.53
2023-02-16T08:22:02.552Z,99590.50
2023-02-16T08:24:29.669Z,99594.00
2023-02-16T08:26:56.704Z,99594.63
2023-02-16T08:29:23.796Z,99585.47
2023-02-16T08:31:50.728Z,99581.72
2023-02-16T08:34:18.791Z,99583.53
2023-02-16T08:36:53.251Z,99587.75
2023-02-16T08:39:21.037Z,99583.19
2023-02-16T08:41:48.497Z,99586.53
2023-02-16T08:44:16.081Z,99592.66
2023-02-16T08:46:43.844Z,99586.13
2023-02-16T08:49:11.936Z,99595.88
2023-02-16T08:51:42.696Z,99603.72
2023-02-16T08:54:13.595Z,99603.50
2023-02-16T08:56:41.623Z,99605.31
2023-02-16T08:59:08.768Z,99612.47
2023-02-16T09:01:35.987Z,99609.53
2023-02-16T09:04:03.131Z,99599.66
2023-02-16T09:06:29.866Z,99604.72
2023-02-16T09:08:57.276Z,99607.41
2023-02-16T09:11:24.532Z,99604.41
2023-02-16T09:13:51.746Z,99614.91
2023-02-16T09:16:20.613Z,99605.75
2023-02-16T09:18:48.171Z,99603.66
2023-02-16T09:21:20.988Z,99604.34
2023-02-16T09:23:49.344Z,99606.09
2023-02-16T09:26:18.081Z,99601.28
2023-02-16T09:28:45.791Z,99604.53
2023-02-16T09:31:20.309Z,99610.69
2023-02-16T09:33:47.485Z,99605.19
2023-02-16T09:36:14.293Z,99611.09
2023-02-16T09:38:41.443Z,99599.34
2023-02-16T09:41:23.446Z,99603.72
2023-02-16T09:43:57.973Z,99593.81
2023-02-16T09:46:25.381Z,99598.00
2023-02-16T09:48:54.773Z,99596.09
2023-02-16T09:51:48.196Z,99595.91
2023-02-16T09:54:28.324Z,99597.22
2023-02-16T09:56:58.180Z,99590.66
2023-02-16T09:59:51.541Z,99590.41
2023-02-16T10:02:39.909Z,99591.06
2023-02-16T10:05:20.368Z,99584.69
2023-02-16T10:07:57.598Z,99579.91
2023-02-16T10:10:46.242Z,99585.94
2023-02-16T10:13:26.235Z,99579.66
2023-02-16T10:15:54.164Z,99581.25
2023-02-16T10:18:42.193Z,99581.81
2023-02-16T10:21:15.362Z,99575.28
2023-02-16T10:23:48.609Z,99576.47
2023-02-16T10:26:28.597Z,99570.91
2023-02-16T10:28:56.869Z,99567.94
2023-02-16T10:31:27.021Z,99566.75
2023-02-16T10:34:15.611Z,99571.16
2023-02-16T10:37:09.608Z,99570.69
2023-02-16T10:39:42.726Z,99566.06
2023-02-16T10:42:25.100Z,99570.00
2023-02-16T10:45:06.095Z,99544.84
2023-02-16T10:47:37.401Z,99552.41
2023-02-16T10:50:09.887Z,99538.78
2023-02-16T10:52:38.133Z,99541.09
2023-02-16T10:55:05.779Z,99537.41
2023-02-16T10:57:33.192Z,99523.72
2023-02-16T11:00:02.309Z,99514.50
2023-02-16T11:02:38.207Z,99521.34
2023-02-16T11:05:32.330Z,99526.31
2023-02-16T11:08:01.716Z,99514.63
2023-02-16T11:10:51.922Z,99516.13
2023-02-16T11:13:33.961Z,99519.41
2023-02-16T11:16:05.581Z,99517.34
2023-02-16T11:18:36.388Z,99516.22
2023-02-16T11:21:03.911Z,99511.44
2023-02-16T11:23:44.317Z,99512.19
2023-02-16T11:26:11.805Z,99503.16
2023-02-16T11:28:40.914Z,99497.44
2023-02-16T11:31:12.421Z,99499.00
2023-02-16T11:33:40.316Z,99490.94
2023-02-16T11:36:19.787Z,99488.69
2023-02-16T11:39:16.524Z,99490.28
2023-02-16T11:41:48.584Z,99494.50
2023-02-16T11:44:33.186Z,99499.97
2023-02-16T11:47:04.414Z,99498.25
2023-02-16T11:49:36.980Z,99495.28
2023-02-16T11:52:23.189Z,99499.63
2023-02-16T11:54:51.900Z,99496.59
2023-02-16T11:57:29.764Z,99491.06
2023-02-16T11:59:57.305Z,99488.78
2023-02-16T12:02:55.011Z,99487.69
2023-02-16T12:05:47.333Z,99481.31
2023-02-16T12:08:26.275Z,99467.03
2023-02-16T12:11:19.491Z,99471.28
2023-02-16T12:13:46.289Z,99472.06
2023-02-16T12:16:32.104Z,99470.16
2023-02-16T12:19:04.637Z,99473.78
2023-02-16T12:21:40.839Z,99466.59
2023-02-16T12:24:44.827Z,99473.44
2023-02-16T12:27:39.193Z,99475.84
2023-02-16T12:30:08.076Z,99470.22
2023-02-16T12:32:57.788Z,99460.03
2023-02-16T12:35:59.151Z,99456.56
2023-02-16T12:38:39.692Z,99459.38
2023-02-16T12:41:50.964Z,99460.72
2023-02-16T12:44:21.179Z,99447.88
2023-02-16T12:46:49.814Z,99448.63
2023-02-16T12:49:24.597Z,99443.34
2023-02-16T12:51:59.238Z,99443.53
2023-02-16T12:54:35.660Z,99442.66
2023-02-16T12:57:08.316Z,99430.06
2023-02-16T12:59:56.634Z,99431.81
2023-02-16T13:02:27.769Z,99423.31
2023-02-16T13:05:03.227Z,99428.56
2023-02-16T13:07:37.378Z,99417.25
2023-02-16T13:10:14.733Z,99420.41
2023-02-16T13:12:49.846Z,99406.69
2023-02-16T13:15:20.693Z,99405.72
2023-02-16T13:17:50.034Z,99402.84
2023-02-16T13:20:19.815Z,99392.50
2023-02-16T13:23:40.430Z,99403.03
2023-02-16T13:26:26.385Z,99395.66
2023-02-16T13:28:56.316Z,99383.34
2023-02-16T13:31:41.843Z,99388.72
2023-02-16T13:34:12.034Z,99395.56
2023-02-16T13:37:03.452Z,99391.13
2023-02-16T13:40:08.120Z,99389.19
2023-02-16T13:42:44.288Z,99378.91
2023-02-16T13:45:19.825Z,99374.81
2023-02-16T13:47:48.276Z,99372.78
2023-02-16T13:50:35.667Z,99378.72
2023-02-16T13:53:19.936Z,99377.41
2023-02-16T13:55:47.004Z,99369.25
2023-02-16T13:58:14.124Z,99375.09
2023-02-16T14:00:48.567Z,99380.47
2023-02-16T14:03:21.894Z,99383.16
2023-02-16T14:05:53.021Z,99389.41
2023-02-16T14:08:24.795Z,99382.22
2023-02-16T14:10:53.926Z,99377.78
2023-02-16T14:13:28.670Z,99379.41
2023-02-16T14:15:56.750Z,99383.84
2023-02-16T14:18:36.180Z,99380.28
2023-02-16T14:21:07.748Z,99379.03
2023-02-16T14:23:35.094Z,99381.63
2023-02-16T14:26:03.724Z,99381.53
2023-02-16T14:28:35.423Z,99391.63
2023-02-16T14:31:12.705Z,99389.88
2023-02-16T14:33:49.044Z,99391.22
2023-02-16T14:36:18.383Z,99395.53
2023-02-16T14:38:49.511Z,99381.13
2023-02-16T14:41:22.547Z,99390.06
2023-02-16T14:43:58.692Z,99382.97
2023-02-16T14:46:47.220Z,99387.78
2023-02-16T14:49:48.304Z,99385.47
2023-02-16T14:52:41.183Z,99378.75
2023-02-16T14:55:14.371Z,99383.47
2023-02-16T14:57:41.232Z,99385.47
2023-02-16T15:00:31.958Z,99384.59
2023-02-16T15:02:59.947Z,99385.09
2023-02-16T15:05:29.712Z,99376.72
2023-02-16T15:08:14.049Z,99380.84
2023-02-16T15:10:41.106Z,99380.19
2023-02-16T15:13:07.959Z,99369.63
2023-02-16T15:15:46.007Z,99370.47
2023-02-16T15:18:23.609Z,99372.97
2023-02-16T15:20:53.003Z,99382.88
2023-02-16T15:23:24.496Z,99376.63
2023-02-16T15:25:58.731Z,99382.09
2023-02-16T15:28:39.220Z,99377.78
2023-02-16T15:31:18.153Z,99371.53
2023-02-16T15:33:54.951Z,99378.53
2023-02-16T15:36:35.435Z,99375.00
2023-02-16T15:39:13.285Z,99370.75
2023-02-16T15:41:43.298Z,99370.75
2023-02-16T15:44:34.457Z,99371.81
2023-02-16T15:47:15.962Z,99360.41
2023-02-16T15:49:42.779Z,99371.25
2023-02-16T15:52:21.590Z,99372.97
2023-02-16T15:54:48.552Z,99374.97
2023-02-16T15:57:19.853Z,99373.28
2023-02-16T15:59:48.726Z,99367.31
2023-02-16T16:02:34.924Z,99367.19
2023-02-16T16:05:03.234Z,99369.13
2023-02-16T16:07:42.864Z,99374.59
2023-02-16T16:10:15.525Z,99369.28
2023-02-16T16:12:42.873Z,99364.81
2023-02-16T16:15:15.716Z,99366.91
2023-02-16T16:17:42.829Z,99370.66
2023-02-16T16:20:24.891Z,99367.47
2023-02-16T16:22:56.740Z,99366.13
2023-02-16T16:25:35.932Z,99361.88
2023-02-16T16:28:06.949Z,99356.78
2023-02-16T16:30:34.883Z,99352.53
2023-02-16T16:33:02.796Z,99347.56
2023-02-16T16:35:37.985Z,99352.22
2023-02-16T16:38:06.118Z,99354.81
2023-02-16T16:40:37.292Z,99353.22
2023-02-16T16:43:04.568Z,99354.06
2023-02-16T16:45:40.953Z,99367.59
2023-02-16T16:48:19.400Z,99367.69
2023-02-16T16:50:46.610Z,99372.38
2023-02-16T16:53:29.126Z,99371.69
2023-02-16T16:55:56.987Z,99366.69
2023-02-16T16:58:24.038Z,99366.81
2023-02-16T17:00:50.798Z,99372.28
2023-02-16T17:03:18.044Z,99364.22
2023-02-16T17:05:45.243Z,99363.63
2023-02-16T17:08:12.406Z,99368.16
2023-02-16T17:10:40.339Z,99370.06
2023-02-16T17:13:07.690Z,99370.31
2023-02-16T17:15:53.981Z,99364.38
2023-02-16T17:18:21.598Z,99363.00
2023-02-16T17:20:48.610Z,99363.16
2023-02-16T17:23:16.606Z,99369.88
2023-02-16T17:25:43.525Z,99371.16
2023-02-16T17:28:10.727Z,99372.28
2023-02-16T17:30:37.768Z,99375.06
2023-02-16T17:33:07.063Z,99377.81
2023-02-16T17:35:33.919Z,99380.50
2023-02-16T17:38:07.332Z,99377.13
2023-02-16T17:40:34.275Z,99371.09
2023-02-16T17:43:01.477Z,99371.25
2023-02-16T17:45:28.292Z,99379.63
2023-02-16T17:47:55.383Z,99373.41
2023-02-16T17:50:22.265Z,99373.66
2023-02-16T17:52:49.363Z,99378.34
2023-02-16T17:55:16.261Z,99376.69
2023-02-16T17:57:43.366Z,99385.00
2023-02-16T18:00:14.263Z,99393.06
2023-02-16T18:02:41.375Z,99388.63
2023-02-16T18:05:08.294Z,99380.66
2023-02-16T18:07:35.582Z,99385.19
2023-02-16T18:10:02.532Z,99384.41
2023-02-16T18:12:29.625Z,99389.94
2023-02-16T18:14:56.746Z,99385.59
2023-02-16T18:17:24.118Z,99382.22
2023-02-16T18:19:50.909Z,99371.72
2023-02-16T18:22:18.036Z,99379.84
2023-02-16T18:24:45.155Z,99381.84
2023-02-16T18:27:12.301Z,99382.00
2023-02-16T18:29:39.088Z,99379.44
2023-02-16T18:32:06.320Z,99382.34
2023-02-16T18:34:35.049Z,99387.72
2023-02-16T18:37:02.226Z,99383.38
2023-02-16T18:39:29.326Z,99383.63
2023-02-16T18:41:56.442Z,99383.63
2023-02-16T18:44:23.216Z,99392.69
2023-02-16T18:46:50.421Z,99398.31
2023-02-16T18:49:17.184Z,99397.44
2023-02-16T18:51:44.255Z,99397.69
2023-02-16T18:54:11.043Z,99395.88
2023-02-16T18:56:39.184Z,99398.72
2023-02-16T18:59:06.248Z,99394.38
2023-02-16T19:01:33.804Z,99396.38
2023-02-16T19:04:01.386Z,99395.50
2023-02-16T19:06:28.860Z,99397.38
2023-02-16T19:08:56.418Z,99408.19
2023-02-16T19:11:23.586Z,99390.53
2023-02-16T19:13:50.442Z,99390.69
2023-02-16T19:16:17.798Z,99394.41
2023-02-16T19:18:44.705Z,99390.00
2023-02-16T19:21:12.601Z,99401.72
2023-02-16T19:23:39.504Z,99396.47
2023-02-16T19:26:08.013Z,99392.19
2023-02-16T19:28:35.265Z,99396.78
2023-02-16T19:31:03.542Z,99398.41
2023-02-16T19:33:30.643Z,99388.13
2023-02-16T19:36:02.591Z,99392.69
2023-02-16T19:38:29.943Z,99383.84
2023-02-16T19:40:57.130Z,99384.72
2023-02-16T19:43:24.561Z,99377.78
2023-02-16T19:45:52.912Z,99384.97
2023-02-16T19:48:19.699Z,99388.56
2023-02-16T19:50:46.766Z,99389.66
2023-02-16T19:53:13.554Z,99389.81
2023-02-16T19:55:42.057Z,99381.69
2023-02-16T19:58:08.837Z,99389.72
2023-02-16T20:00:37.703Z,99394.53
2023-02-16T20:03:04.734Z,99393.66
2023-02-16T20:05:32.436Z,99397.22
2023-02-16T20:08:02.181Z,99395.63
2023-02-16T20:10:30.317Z,99400.34
2023-02-16T20:12:57.077Z,99399.31
2023-02-16T20:15:24.163Z,99386.16
2023-02-16T20:17:51.043Z,99398.78
2023-02-16T20:20:18.572Z,99389.06
2023-02-16T20:22:45.380Z,99391.91
2023-02-16T20:25:12.493Z,99385.75
2023-02-16T20:27:39.323Z,99392.91
2023-02-16T20:30:07.122Z,99389.25
2023-02-16T20:32:33.970Z,99390.31
2023-02-16T20:35:05.181Z,99387.72
2023-02-16T20:37:31.997Z,99396.72
2023-02-16T20:39:59.132Z,99387.00
2023-02-16T20:42:26.089Z,99387.78
2023-02-16T20:44:53.256Z,99388.97
2023-02-16T20:47:20.111Z,99395.13
2023-02-16T20:49:47.246Z,99392.72
2023-02-16T20:52:14.522Z,99391.72
2023-02-16T20:54:41.715Z,99390.78
2023-02-16T20:57:21.290Z,99388.34
2023-02-16T20:59:53.064Z,99390.16
2023-02-16T21:02:19.868Z,99379.59
2023-02-16T21:04:47.227Z,99376.19
2023-02-16T21:07:14.055Z,99372.56
2023-02-16T21:09:41.403Z,99378.81
2023-02-16T21:12:08.253Z,99368.41
2023-02-16T21:14:35.340Z,99368.47
2023-02-16T21:17:02.163Z,99381.84
2023-02-16T21:19:29.241Z,99371.28
2023-02-16T21:21:56.025Z,99375.84
2023-02-16T21:24:23.245Z,99374.25
2023-02-16T21:26:50.014Z,99370.56
2023-02-16T21:29:17.195Z,99370.72
2023-02-16T21:31:44.201Z,99367.19
2023-02-16T21:34:11.373Z,99367.47
2023-02-16T21:36:38.924Z,99363.88
2023-02-16T21:39:06.113Z,99364.72
2023-02-16T21:41:32.890Z,99369.22
2023-02-16T21:44:12.131Z,99379.09
2023-02-16T21:46:46.582Z,99367.69
2023-02-16T21:49:15.542Z,99370.59
2023-02-16T21:51:42.956Z,99366.13
2023-02-16T21:54:13.763Z,99365.09
2023-02-16T21:56:42.749Z,99356.34
2023-02-16T21:59:11.836Z,99364.38
2023-02-16T22:01:51.021Z,99367.94
2023-02-16T22:04:20.134Z,99359.97
2023-02-16T22:06:47.669Z,99367.09
2023-02-16T22:09:17.620Z,99358.59
2023-02-16T22:11:44.899Z,99361.13
2023-02-16T22:14:12.080Z,99355.84
2023-02-16T22:16:39.224Z,99361.13
2023-02-16T22:19:08.346Z,99358.59
2023-02-16T22:21:36.872Z,99363.06
2023-02-16T22:24:04.254Z,99363.94
2023-02-16T22:26:32.300Z,99352.50
2023-02-16T22:28:59.346Z,99359.63
2023-02-16T22:31:27.001Z,99362.34
2023-02-16T22:33:58.405Z,99358.91
2023-02-16T22:36:25.372Z,99368.56
2023-02-16T22:38:52.960Z,99373.25
2023-02-16T22:41:19.908Z,99378.59
2023-02-16T22:43:47.046Z,99373.34
2023-02-16T22:46:15.995Z,99373.41
2023-02-16T22:48:43.510Z,99367.06
2023-02-16T22:51:12.175Z,99372.63
2023-02-16T22:53:39.437Z,99362.94
2023-02-16T22:56:07.625Z,99371.75
2023-02-16T22:58:35.021Z,99361.91
2023-02-16T23:01:01.810Z,99364.78
2023-02-16T23:03:29.251Z,99374.50
2023-02-16T23:05:56.028Z,99365.69
2023-02-16T23:08:23.132Z,99366.63
2023-02-16T23:11:02.047Z,99362.06
2023-02-16T23:13:30.346Z,99363.00
2023-02-16T23:15:57.337Z,99363.94
2023-02-16T23:18:24.756Z,99372.16
2023-02-16T23:20:51.584Z,99362.38
2023-02-16T23:23:18.786Z,99361.53
2023-02-16T23:25:46.541Z,99355.34
2023-02-16T23:28:13.737Z,99358.09
2023-02-16T23:30:44.721Z,99355.53
2023-02-16T23:33:12.199Z,99338.66
2023-02-16T23:35:39.652Z,99340.41
2023-02-16T23:38:07.677Z,99338.72
2023-02-16T23:40:34.515Z,99332.50
2023-02-16T23:43:01.612Z,99328.88
2023-02-16T23:45:28.430Z,99331.66
2023-02-16T23:47:55.496Z,99336.91
2023-02-16T23:50:22.360Z,99338.72
2023-02-16T23:52:49.460Z,99334.41
2023-02-16T23:55:16.233Z,99338.94
2023-02-16T23:57:43.303Z,99345.22
